createdAt,value
2023-02-21T00:00:49.129Z,11.00
2023-02-21T00:03:38.176Z,11.10
2023-02-21T00:06:29.539Z,11.00
2023-02-21T00:09:18.468Z,11.10
2023-02-21T00:12:07.471Z,11.10
2023-02-21T00:14:58.545Z,11.30
2023-02-21T00:17:47.746Z,11.20
2023-02-21T00:20:42.651Z,11.30
2023-02-21T00:23:31.986Z,11.40
2023-02-21T00:26:22.118Z,11.40
2023-02-21T00:29:11.216Z,11.50
2023-02-21T00:32:00.384Z,11.50
2023-02-21T00:34:49.470Z,11.50
2023-02-21T00:37:38.522Z,11.50
2023-02-21T00:40:31.407Z,11.60
2023-02-21T00:43:20.560Z,11.80
2023-02-21T00:46:09.824Z,11.90
2023-02-21T00:48:58.476Z,11.90
2023-02-21T00:51:48.595Z,12.00
2023-02-21T00:54:37.447Z,12.10
2023-02-21T00:57:27.693Z,12.20
2023-02-21T01:00:16.958Z,12.30
2023-02-21T01:03:06.288Z,12.50
2023-02-21T01:05:55.211Z,12.50
2023-02-21T01:08:44.626Z,12.70
2023-02-21T01:11:38.588Z,12.80
2023-02-21T01:14:28.620Z,12.90
2023-02-21T01:17:17.673Z,13.00
2023-02-21T01:20:06.890Z,13.10
2023-02-21T01:22:56.508Z,13.30
2023-02-21T01:25:45.380Z,13.50
2023-02-21T01:28:34.502Z,13.70
2023-02-21T01:31:25.054Z,13.80
2023-02-21T01:34:14.270Z,13.90
2023-02-21T01:37:03.371Z,14.00
2023-02-21T01:39:52.664Z,14.20
2023-02-21T01:42:42.464Z,14.30
2023-02-21T01:45:43.786Z,14.40
2023-02-21T01:48:37.440Z,14.40
2023-02-21T01:51:31.092Z,14.60
2023-02-21T01:54:22.069Z,14.70
2023-02-21T01:57:13.792Z,14.70
2023-02-21T02:00:04.476Z,14.80
2023-02-21T02:03:26.591Z,15.00
2023-02-21T02:06:24.922Z,15.10
2023-02-21T02:09:14.896Z,15.10
2023-02-21T02:12:28.941Z,15.20
2023-02-21T02:15:22.632Z,15.20
2023-02-21T02:17:59.790Z,15.30
2023-02-21T02:20:49.162Z,15.30
2023-02-21T02:23:25.713Z,15.40
2023-02-21T02:26:21.820Z,15.50
2023-02-21T02:29:13.832Z,15.60
2023-02-21T02:32:03.203Z,15.60
2023-02-21T02:34:56.978Z,15.70
2023-02-21T02:37:51.343Z,15.70
2023-02-21T02:40:50.630Z,15.80
2023-02-21T02:43:32.603Z,15.90
2023-02-21T02:46:06.817Z,16.10
2023-02-21T02:48:48.669Z,16.10
2023-02-21T02:51:20.208Z,16.20
2023-02-21T02:53:52.437Z,16.30
2023-02-21T02:56:30.382Z,16.30
2023-02-21T02:59:19.568Z,16.40
2023-02-21T03:01:53.170Z,16.50
2023-02-21T03:04:48.761Z,16.60
2023-02-21T03:07:41.080Z,16.70
2023-02-21T03:10:31.353Z,16.60
2023-02-21T03:13:10.234Z,16.80
2023-02-21T03:16:01.397Z,16.90
2023-02-21T03:18:53.277Z,17.00
2023-02-21T03:21:59.866Z,17.00
2023-02-21T03:24:31.858Z,17.10
2023-02-21T03:27:07.232Z,17.10
2023-02-21T03:29:54.507Z,17.00
2023-02-21T03:32:51.194Z,17.10
2023-02-21T03:35:24.891Z,17.00
2023-02-21T03:37:56.226Z,17.00
2023-02-21T03:40:32.861Z,17.00
2023-02-21T03:43:09.083Z,17.20
2023-02-21T03:45:48.820Z,17.20
2023-02-21T03:48:31.754Z,17.30
2023-02-21T03:51:19.318Z,17.40
2023-02-21T03:53:51.425Z,17.30
2023-02-21T03:56:33.386Z,17.50
2023-02-21T03:59:23.980Z,17.50
2023-02-21T04:01:55.803Z,17.40
2023-02-21T04:04:28.278Z,17.50
2023-02-21T04:07:10.343Z,17.40
2023-02-21T04:09:41.757Z,17.40
2023-02-21T04:12:15.226Z,17.40
2023-02-21T04:14:46.604Z,17.30
2023-02-21T04:17:17.990Z,17.50
2023-02-21T04:19:49.638Z,17.30
2023-02-21T04:22:21.591Z,17.30
2023-02-21T04:24:53.064Z,17.40
2023-02-21T04:27:27.214Z,17.40
2023-02-21T04:30:00.421Z,17.30
2023-02-21T04:32:31.833Z,17.40
2023-02-21T04:35:08.137Z,17.60
2023-02-21T04:37:39.966Z,17.80
2023-02-21T04:40:13.027Z,17.90
2023-02-21T04:42:44.304Z,17.60
2023-02-21T04:45:15.427Z,17.80
2023-02-21T04:47:47.830Z,17.80
2023-02-21T04:50:19.041Z,17.90
2023-02-21T04:52:50.905Z,18.10
2023-02-21T04:55:22.018Z,18.20
2023-02-21T04:57:53.433Z,18.10
2023-02-21T05:00:25.410Z,18.20
2023-02-21T05:03:16.328Z,18.10
2023-02-21T05:05:47.630Z,18.30
2023-02-21T05:08:20.926Z,18.20
2023-02-21T05:10:51.956Z,18.20
2023-02-21T05:13:24.389Z,18.30
2023-02-21T05:15:55.316Z,18.30
2023-02-21T05:18:31.745Z,17.90
2023-02-21T05:21:23.078Z,17.90
2023-02-21T05:24:00.012Z,17.80
2023-02-21T05:26:38.142Z,18.00
2023-02-21T05:29:09.245Z,18.00
2023-02-21T05:31:40.438Z,18.00
2023-02-21T05:34:11.539Z,18.00
2023-02-21T05:36:42.661Z,18.00
2023-02-21T05:39:13.965Z,18.10
2023-02-21T05:41:54.081Z,18.10
2023-02-21T05:44:25.168Z,17.70
2023-02-21T05:46:56.465Z,17.70
2023-02-21T05:49:29.593Z,17.70
2023-02-21T05:52:01.698Z,17.70
2023-02-21T05:54:33.054Z,17.80
2023-02-21T05:57:05.680Z,17.80
2023-02-21T05:59:36.374Z,17.80
2023-02-21T06:02:07.269Z,17.80
2023-02-21T06:04:38.581Z,18.00
2023-02-21T06:07:09.795Z,18.00
2023-02-21T06:09:41.150Z,18.00
2023-02-21T06:12:12.310Z,17.90
2023-02-21T06:14:43.606Z,17.90
2023-02-21T06:17:14.621Z,17.90
2023-02-21T06:19:45.664Z,17.90
2023-02-21T06:22:16.809Z,17.80
2023-02-21T06:24:51.794Z,17.70
2023-02-21T06:27:23.524Z,17.70
2023-02-21T06:29:54.636Z,17.80
2023-02-21T06:32:25.593Z,17.80
2023-02-21T06:34:56.623Z,17.90
2023-02-21T06:37:27.870Z,17.90
2023-02-21T06:39:59.079Z,17.80
2023-02-21T06:42:31.600Z,17.70
2023-02-21T06:45:02.915Z,17.70
2023-02-21T06:47:33.984Z,17.70
2023-02-21T06:50:05.519Z,17.70
2023-02-21T06:52:36.762Z,17.80
2023-02-21T06:55:09.478Z,17.80
2023-02-21T06:57:40.677Z,17.80
2023-02-21T07:00:12.593Z,17.70
2023-02-21T07:02:43.790Z,17.80
2023-02-21T07:05:14.976Z,17.80
2023-02-21T07:07:46.245Z,17.80
2023-02-21T07:10:17.419Z,17.80
2023-02-21T07:12:48.758Z,17.90
2023-02-21T07:15:21.191Z,17.90
2023-02-21T07:17:52.330Z,17.80
2023-02-21T07:20:23.519Z,17.90
2023-02-21T07:22:54.504Z,17.80
2023-02-21T07:25:28.823Z,17.80
2023-02-21T07:27:59.873Z,17.80
2023-02-21T07:30:31.244Z,17.70
2023-02-21T07:33:02.898Z,17.90
2023-02-21T07:35:34.217Z,17.70
2023-02-21T07:38:05.563Z,17.50
2023-02-21T07:40:36.965Z,17.50
2023-02-21T07:43:07.917Z,17.50
2023-02-21T07:45:38.962Z,17.50
2023-02-21T07:48:10.125Z,17.40
2023-02-21T07:50:42.782Z,17.40
2023-02-21T07:53:15.373Z,17.40
2023-02-21T07:56:07.123Z,17.30
2023-02-21T07:58:41.269Z,17.30
2023-02-21T08:01:12.912Z,17.30
2023-02-21T08:03:44.365Z,17.20
2023-02-21T08:06:37.488Z,17.30
2023-02-21T08:09:09.721Z,17.20
2023-02-21T08:11:42.142Z,17.10
2023-02-21T08:14:13.340Z,17.00
2023-02-21T08:16:44.697Z,17.10
2023-02-21T08:19:16.308Z,17.00
2023-02-21T08:21:49.003Z,17.00
2023-02-21T08:24:21.170Z,17.00
2023-02-21T08:26:52.145Z,16.90
2023-02-21T08:29:23.411Z,17.00
2023-02-21T08:31:54.725Z,16.90
2023-02-21T08:34:27.078Z,16.90
2023-02-21T08:36:58.810Z,16.80
2023-02-21T08:39:33.322Z,16.90
2023-02-21T08:42:04.520Z,16.90
2023-02-21T08:44:35.741Z,16.80
2023-02-21T08:47:09.406Z,16.80
2023-02-21T08:49:44.283Z,16.80
2023-02-21T08:52:19.179Z,16.80
2023-02-21T08:54:50.399Z,16.60
2023-02-21T08:57:21.392Z,16.70
2023-02-21T09:00:13.303Z,16.70
2023-02-21T09:02:44.566Z,16.70
2023-02-21T09:05:25.864Z,16.60
2023-02-21T09:08:00.633Z,16.60
2023-02-21T09:10:38.102Z,16.70
2023-02-21T09:13:09.107Z,16.70
2023-02-21T09:15:40.255Z,16.70
2023-02-21T09:18:13.376Z,16.60
2023-02-21T09:20:44.560Z,16.60
2023-02-21T09:23:17.141Z,16.60
2023-02-21T09:25:49.724Z,16.70
2023-02-21T09:28:22.333Z,16.70
2023-02-21T09:30:54.114Z,16.90
2023-02-21T09:33:25.484Z,16.80
2023-02-21T09:35:56.691Z,16.80
2023-02-21T09:38:27.872Z,16.80
2023-02-21T09:41:03.282Z,16.80
2023-02-21T09:43:47.642Z,16.80
2023-02-21T09:46:43.032Z,16.80
2023-02-21T09:49:42.585Z,16.70
2023-02-21T09:52:38.490Z,16.60
2023-02-21T09:55:33.657Z,16.60
2023-02-21T09:58:05.157Z,16.50
2023-02-21T10:00:40.578Z,16.50
2023-02-21T10:03:35.402Z,16.40
2023-02-21T10:06:42.057Z,16.40
2023-02-21T10:09:21.896Z,16.40
2023-02-21T10:12:01.874Z,16.30
2023-02-21T10:15:04.801Z,16.20
2023-02-21T10:17:45.468Z,16.20
2023-02-21T10:20:23.614Z,16.20
2023-02-21T10:22:55.661Z,16.20
2023-02-21T10:25:31.831Z,16.10
2023-02-21T10:28:03.058Z,16.10
2023-02-21T10:30:42.245Z,16.00
2023-02-21T10:33:13.499Z,16.00
2023-02-21T10:35:44.779Z,16.00
2023-02-21T10:38:36.039Z,15.90
2023-02-21T10:41:08.016Z,15.90
2023-02-21T10:43:43.279Z,15.90
2023-02-21T10:46:41.456Z,15.90
2023-02-21T10:49:50.810Z,15.80
2023-02-21T10:52:25.468Z,15.80
2023-02-21T10:55:31.893Z,15.70
2023-02-21T10:58:20.772Z,15.70
2023-02-21T11:00:51.953Z,15.70
2023-02-21T11:03:32.470Z,15.70
2023-02-21T11:06:05.724Z,15.60
2023-02-21T11:08:39.806Z,15.60
2023-02-21T11:11:12.723Z,15.60
2023-02-21T11:13:44.100Z,15.50
2023-02-21T11:16:21.156Z,15.50
2023-02-21T11:19:14.075Z,15.60
2023-02-21T11:21:46.871Z,15.50
2023-02-21T11:24:18.266Z,15.50
2023-02-21T11:27:12.653Z,15.50
2023-02-21T11:29:51.585Z,15.40
2023-02-21T11:32:37.226Z,15.40
2023-02-21T11:35:29.462Z,15.50
2023-02-21T11:38:02.032Z,15.40
2023-02-21T11:40:54.668Z,15.40
2023-02-21T11:43:33.781Z,15.40
2023-02-21T11:46:15.141Z,15.40
2023-02-21T11:48:46.041Z,15.40
2023-02-21T11:51:41.866Z,15.30
2023-02-21T11:54:14.062Z,15.30
2023-02-21T11:57:17.212Z,15.30
2023-02-21T11:59:51.558Z,15.30
2023-02-21T12:02:41.684Z,15.30
2023-02-21T12:05:13.030Z,15.20
2023-02-21T12:07:58.121Z,15.20
2023-02-21T12:10:50.257Z,15.20
2023-02-21T12:13:46.164Z,15.20
2023-02-21T12:16:59.685Z,15.10
2023-02-21T12:19:52.139Z,15.10
2023-02-21T12:22:53.802Z,15.00
2023-02-21T12:25:47.673Z,15.00
2023-02-21T12:28:37.213Z,14.90
2023-02-21T12:31:46.509Z,14.90
2023-02-21T12:35:02.828Z,14.90
2023-02-21T12:37:38.899Z,14.90
2023-02-21T12:40:16.315Z,14.90
2023-02-21T12:43:25.224Z,14.90
2023-02-21T12:46:32.733Z,14.80
2023-02-21T12:49:21.547Z,14.80
2023-02-21T12:52:09.776Z,14.80
2023-02-21T12:54:47.981Z,14.80
2023-02-21T12:57:30.530Z,14.80
2023-02-21T13:00:26.695Z,14.80
2023-02-21T13:03:23.006Z,14.70
2023-02-21T13:06:13.485Z,14.70
2023-02-21T13:09:25.329Z,14.70
2023-02-21T13:12:23.348Z,14.80
2023-02-21T13:15:50.936Z,14.70
2023-02-21T13:18:27.989Z,14.70
2023-02-21T13:21:18.588Z,14.70
2023-02-21T13:24:27.934Z,14.70
2023-02-21T13:27:05.131Z,14.70
2023-02-21T13:30:16.004Z,14.70
2023-02-21T13:32:56.535Z,14.60
2023-02-21T13:35:38.238Z,14.60
2023-02-21T13:38:12.850Z,14.60
2023-02-21T13:40:57.537Z,14.60
2023-02-21T13:43:32.491Z,14.60
2023-02-21T13:46:33.262Z,14.60
2023-02-21T13:49:44.350Z,14.60
2023-02-21T13:52:56.775Z,14.60
2023-02-21T13:55:32.216Z,14.60
2023-02-21T13:58:09.028Z,14.60
2023-02-21T14:00:44.414Z,14.60
2023-02-21T14:03:24.595Z,14.60
2023-02-21T14:05:58.572Z,14.60
2023-02-21T14:08:52.878Z,14.60
2023-02-21T14:11:25.534Z,14.60
2023-02-21T14:14:05.085Z,14.60
2023-02-21T14:16:56.228Z,14.60
2023-02-21T14:19:37.963Z,14.60
2023-02-21T14:22:19.450Z,14.60
2023-02-21T14:24:55.249Z,14.60
2023-02-21T14:27:30.549Z,14.60
2023-02-21T14:30:14.931Z,14.70
2023-02-21T14:32:56.589Z,14.70
2023-02-21T14:35:53.551Z,14.60
2023-02-21T14:38:29.140Z,14.60
2023-02-21T14:41:20.549Z,14.60
2023-02-21T14:44:12.937Z,14.60
2023-02-21T14:47:07.665Z,14.60
2023-02-21T14:49:45.222Z,14.60
2023-02-21T14:52:46.361Z,14.60
2023-02-21T14:55:42.070Z,14.60
2023-02-21T14:58:27.005Z,14.60
2023-02-21T15:01:18.651Z,14.60
2023-02-21T15:04:23.942Z,14.60
2023-02-21T15:07:09.985Z,14.50
2023-02-21T15:09:42.165Z,14.50
2023-02-21T15:12:21.092Z,14.60
2023-02-21T15:14:54.857Z,14.50
2023-02-21T15:17:28.325Z,14.60
2023-02-21T15:20:29.174Z,14.60
2023-02-21T15:23:25.118Z,14.50
2023-02-21T15:26:31.862Z,14.50
2023-02-21T15:29:22.754Z,14.50
2023-02-21T15:32:00.320Z,14.50
2023-02-21T15:34:43.239Z,14.50
2023-02-21T15:37:25.744Z,14.50
2023-02-21T15:40:06.161Z,14.50
2023-02-21T15:42:38.391Z,14.50
2023-02-21T15:45:23.672Z,14.50
2023-02-21T15:47:57.798Z,14.50
2023-02-21T15:50:36.438Z,14.50
2023-02-21T15:53:21.334Z,14.50
2023-02-21T15:55:54.884Z,14.50
2023-02-21T15:58:29.274Z,14.50
2023-02-21T16:01:08.773Z,14.40
2023-02-21T16:03:44.795Z,14.50
2023-02-21T16:06:22.227Z,14.40
2023-02-21T16:09:07.768Z,14.40
2023-02-21T16:12:14.093Z,14.40
2023-02-21T16:14:47.031Z,14.40
2023-02-21T16:17:26.434Z,14.40
2023-02-21T16:20:24.593Z,14.40
2023-02-21T16:23:22.103Z,14.40
2023-02-21T16:26:11.532Z,14.40
2023-02-21T16:28:45.346Z,14.40
2023-02-21T16:31:38.203Z,14.40
2023-02-21T16:34:12.912Z,14.40
2023-02-21T16:37:08.877Z,14.40
2023-02-21T16:39:45.879Z,14.30
2023-02-21T16:42:17.607Z,14.30
2023-02-21T16:44:49.410Z,14.30
2023-02-21T16:47:21.988Z,14.30
2023-02-21T16:50:21.439Z,14.30
2023-02-21T16:52:52.790Z,14.30
2023-02-21T16:55:24.912Z,14.30
2023-02-21T16:58:19.079Z,14.30
2023-02-21T17:00:50.909Z,14.30
2023-02-21T17:03:22.526Z,14.30
2023-02-21T17:05:55.706Z,14.20
2023-02-21T17:08:28.608Z,14.10
2023-02-21T17:11:00.462Z,14.20
2023-02-21T17:13:52.139Z,14.20
2023-02-21T17:16:23.799Z,14.10
2023-02-21T17:18:54.999Z,14.10
2023-02-21T17:21:26.392Z,14.10
2023-02-21T17:23:59.008Z,14.10
2023-02-21T17:26:30.031Z,14.20
2023-02-21T17:29:01.481Z,14.10
2023-02-21T17:31:32.937Z,14.20
2023-02-21T17:34:06.055Z,14.20
2023-02-21T17:36:37.122Z,14.20
2023-02-21T17:39:09.500Z,14.10
2023-02-21T17:41:48.445Z,14.20
2023-02-21T17:44:20.054Z,14.20
2023-02-21T17:46:56.507Z,14.20
2023-02-21T17:49:29.826Z,14.20
2023-02-21T17:52:02.325Z,14.20
2023-02-21T17:54:33.582Z,14.20
2023-02-21T17:57:06.554Z,14.20
2023-02-21T17:59:38.687Z,14.20
2023-02-21T18:02:10.064Z,14.10
2023-02-21T18:04:41.554Z,14.10
2023-02-21T18:07:13.114Z,14.20
2023-02-21T18:09:47.735Z,14.10
2023-02-21T18:12:19.194Z,14.20
2023-02-21T18:14:50.338Z,14.10
2023-02-21T18:17:22.402Z,14.10
2023-02-21T18:19:53.570Z,14.10
2023-02-21T18:22:24.401Z,14.10
2023-02-21T18:24:55.519Z,14.10
2023-02-21T18:27:26.747Z,14.00
2023-02-21T18:29:57.693Z,13.90
2023-02-21T18:32:29.139Z,13.90
2023-02-21T18:35:01.212Z,13.90
2023-02-21T18:37:32.223Z,13.90
2023-02-21T18:40:03.256Z,13.90
2023-02-21T18:42:34.236Z,13.80
2023-02-21T18:45:05.078Z,13.90
2023-02-21T18:47:36.338Z,13.90
2023-02-21T18:50:08.869Z,14.00
2023-02-21T18:52:39.758Z,13.90
2023-02-21T18:55:10.768Z,13.90
2023-02-21T18:57:41.716Z,13.90
2023-02-21T19:00:14.496Z,13.90
2023-02-21T19:02:45.661Z,13.80
2023-02-21T19:05:22.890Z,13.80
2023-02-21T19:07:55.191Z,13.90
2023-02-21T19:10:27.411Z,13.90
2023-02-21T19:13:03.558Z,13.90
2023-02-21T19:15:34.751Z,13.90
2023-02-21T19:18:06.004Z,13.70
2023-02-21T19:20:38.417Z,13.70
2023-02-21T19:23:10.318Z,13.80
2023-02-21T19:25:41.340Z,13.80
2023-02-21T19:28:12.404Z,13.70
2023-02-21T19:30:43.190Z,13.70
2023-02-21T19:33:14.179Z,13.70
2023-02-21T19:35:45.158Z,13.70
2023-02-21T19:38:15.942Z,13.70
2023-02-21T19:40:47.002Z,13.70
2023-02-21T19:43:18.232Z,13.70
2023-02-21T19:45:49.269Z,13.70
2023-02-21T19:48:22.000Z,13.60
2023-02-21T19:50:53.097Z,13.60
2023-02-21T19:53:24.307Z,13.60
2023-02-21T19:55:55.150Z,13.60
2023-02-21T19:58:26.056Z,13.60
2023-02-21T20:00:57.105Z,13.60
2023-02-21T20:03:28.259Z,13.60
2023-02-21T20:06:00.144Z,13.80
2023-02-21T20:08:30.915Z,13.70
2023-02-21T20:11:01.951Z,13.80
2023-02-21T20:13:33.000Z,13.80
2023-02-21T20:16:04.036Z,13.80
2023-02-21T20:18:34.984Z,13.70
2023-02-21T20:21:06.356Z,13.60
2023-02-21T20:23:37.384Z,13.60
2023-02-21T20:26:12.010Z,13.60
2023-02-21T20:28:43.300Z,13.70
2023-02-21T20:31:16.195Z,13.60
2023-02-21T20:33:48.533Z,13.50
2023-02-21T20:36:27.705Z,13.50
2023-02-21T20:38:58.755Z,13.60
2023-02-21T20:41:34.677Z,13.60
2023-02-21T20:44:05.937Z,13.50
2023-02-21T20:46:38.431Z,13.40
2023-02-21T20:49:09.645Z,13.30
2023-02-21T20:51:43.525Z,13.40
2023-02-21T20:54:21.335Z,13.40
2023-02-21T20:56:54.214Z,13.40
2023-02-21T20:59:37.652Z,13.30
2023-02-21T21:02:10.068Z,13.30
2023-02-21T21:04:44.592Z,13.40
2023-02-21T21:07:21.430Z,13.40
2023-02-21T21:09:52.584Z,13.40
2023-02-21T21:12:25.911Z,13.30
2023-02-21T21:14:56.789Z,13.30
2023-02-21T21:17:27.736Z,13.20
2023-02-21T21:19:59.130Z,13.30
2023-02-21T21:22:30.691Z,13.30
2023-02-21T21:25:01.701Z,13.30
2023-02-21T21:27:32.798Z,13.30
2023-02-21T21:30:05.550Z,13.40
2023-02-21T21:32:57.328Z,13.40
2023-02-21T21:35:31.329Z,13.30
2023-02-21T21:38:01.880Z,13.20
2023-02-21T21:40:33.525Z,13.10
2023-02-21T21:43:09.184Z,13.20
2023-02-21T21:45:45.765Z,13.10
2023-02-21T21:48:16.874Z,13.10
2023-02-21T21:50:47.995Z,13.20
2023-02-21T21:53:18.885Z,13.20
2023-02-21T21:55:50.710Z,13.00
2023-02-21T21:58:22.147Z,13.00
2023-02-21T22:00:52.968Z,13.00
2023-02-21T22:03:27.245Z,13.00
2023-02-21T22:05:58.406Z,13.00
2023-02-21T22:08:30.678Z,12.80
2023-02-21T22:11:01.821Z,12.80
2023-02-21T22:13:35.071Z,12.90
2023-02-21T22:16:06.167Z,12.80
2023-02-21T22:18:38.599Z,12.80
2023-02-21T22:21:15.783Z,12.80
2023-02-21T22:23:46.914Z,12.90
2023-02-21T22:26:23.587Z,13.00
2023-02-21T22:28:55.769Z,13.00
2023-02-21T22:31:30.067Z,12.90
2023-02-21T22:34:03.834Z,12.90
2023-02-21T22:36:37.716Z,13.00
2023-02-21T22:39:11.956Z,12.90
2023-02-21T22:41:46.095Z,13.00
2023-02-21T22:44:18.694Z,12.80
2023-02-21T22:47:00.908Z,12.80
2023-02-21T22:49:32.271Z,12.90
2023-02-21T22:52:05.648Z,12.90
2023-02-21T22:54:36.397Z,12.90
2023-02-21T22:57:08.857Z,13.00
2023-02-21T22:59:39.602Z,13.00
2023-02-21T23:02:10.541Z,13.00
2023-02-21T23:04:41.593Z,13.00
2023-02-21T23:07:12.387Z,13.00
2023-02-21T23:09:43.240Z,13.00
2023-02-21T23:12:16.602Z,13.00
2023-02-21T23:14:49.548Z,13.00
2023-02-21T23:17:20.276Z,13.00
2023-02-21T23:19:51.902Z,12.90
2023-02-21T23:22:26.698Z,12.90
2023-02-21T23:24:57.482Z,12.90
2023-02-21T23:27:28.398Z,12.90
2023-02-21T23:30:00.722Z,12.90
2023-02-21T23:32:33.044Z,12.90
2023-02-21T23:35:04.049Z,13.00
2023-02-21T23:37:35.031Z,13.00
2023-02-21T23:40:06.406Z,13.00
2023-02-21T23:42:37.139Z,13.00
2023-02-21T23:45:09.334Z,13.00
2023-02-21T23:47:43.813Z,12.90
2023-02-21T23:50:18.532Z,12.90
2023-02-21T23:52:51.365Z,12.90
2023-02-21T23:55:42.455Z,12.90
2023-02-21T23:58:17.057Z,12.80
